Time;durP1;ratioP1;P1;durP2;ratioP2;P2;SDS_P1;SDS_P2;PMS_P1;PMS_P2;Temp;Humidity;BMP_temperature;BMP_pressure;BME280_temperature;BME280_humidity;BME280_pressure;Samples;Min_cycle;Max_cycle;Signal;HPM_P1;HPM_P2
2023/07/13 00:01:02;;;;;;;8.68;3.05;;;;;;;14.91;74.16;101188.31;4991647;28;20057;-78
2023/07/13 00:03:29;;;;;;;8.80;3.28;;;;;;;14.93;73.94;101194.34;4990781;28;20049;-77
2023/07/13 00:05:59;;;;;;;8.23;3.05;;;;;;;14.90;74.30;101194.78;4990003;28;20054;-78
2023/07/13 00:08:24;;;;;;;6.18;2.55;;;;;;;14.91;74.64;101191.03;4992294;28;20156;-78
2023/07/13 00:10:54;;;;;;;9.07;2.70;;;;;;;14.90;74.34;101191.25;4991378;28;20072;-77
2023/07/13 00:13:19;;;;;;;6.57;2.95;;;;;;;14.87;74.39;101192.50;4987631;28;20099;-77
2023/07/13 00:15:45;;;;;;;8.38;2.75;;;;;;;14.74;74.84;101189.88;4989350;28;20118;-77
2023/07/13 00:18:10;;;;;;;6.75;2.80;;;;;;;14.65;75.54;101187.38;4989844;28;20038;-78
2023/07/13 00:20:36;;;;;;;5.95;3.17;;;;;;;14.69;75.37;101194.06;4991207;28;20496;-78
2023/07/13 00:23:02;;;;;;;10.82;2.80;;;;;;;14.66;75.33;101191.75;4988813;28;20068;-77
2023/07/13 00:25:30;;;;;;;7.53;2.95;;;;;;;14.58;75.46;101197.41;4998942;28;20042;-77
2023/07/13 00:27:56;;;;;;;9.35;2.95;;;;;;;14.44;76.31;101190.41;4989599;28;20030;-78
2023/07/13 00:30:21;;;;;;;8.52;2.92;;;;;;;14.42;76.39;101189.78;4989958;28;20030;-77
2023/07/13 00:32:47;;;;;;;6.38;3.20;;;;;;;14.49;75.99;101209.53;4989878;28;20046;-78
2023/07/13 00:35:15;;;;;;;7.70;3.22;;;;;;;14.54;75.88;101201.59;4989729;28;20030;-77
2023/07/13 00:37:40;;;;;;;10.75;3.22;;;;;;;14.53;75.16;101205.34;4989256;28;20371;-78
2023/07/13 00:40:06;;;;;;;5.28;2.90;;;;;;;14.53;75.12;101205.34;4990768;28;20586;-78
2023/07/13 00:42:32;;;;;;;4.57;2.70;;;;;;;14.56;74.87;101210.34;4990172;28;20076;-78
2023/07/13 00:45:23;;;;;;;8.27;3.00;;;;;;;14.44;75.15;101206.66;4988225;28;20693;-77
2023/07/13 00:47:49;;;;;;;5.75;2.58;;;;;;;14.25;75.77;101209.22;4985655;28;20049;-78
2023/07/13 00:50:15;;;;;;;8.38;3.00;;;;;;;14.21;76.57;101199.84;4990202;28;20038;-77
2023/07/13 00:52:48;;;;;;;5.20;2.35;;;;;;;14.18;76.26;101200.25;4982619;28;20030;-77
2023/07/13 00:55:13;;;;;;;8.40;2.88;;;;;;;14.22;75.87;101193.38;4989403;28;20435;-78
2023/07/13 00:57:39;;;;;;;7.57;2.88;;;;;;;14.15;75.87;101197.97;4990128;28;20014;-77
2023/07/13 01:00:08;;;;;;;9.20;2.53;;;;;;;14.15;76.07;101212.34;4969030;28;20501;-78
2023/07/13 01:02:37;;;;;;;6.75;2.85;;;;;;;14.16;75.83;101207.75;4989178;28;20081;-77
2023/07/13 01:05:09;;;;;;;5.93;2.40;;;;;;;14.08;75.91;101206.97;4970496;28;20122;-78
2023/07/13 01:07:34;;;;;;;5.32;2.47;;;;;;;13.99;76.28;101205.50;4994455;28;20026;-77
2023/07/13 01:10:00;;;;;;;6.53;2.20;;;;;;;14.05;75.91;101210.09;4971620;28;20359;-79
2023/07/13 01:12:25;;;;;;;6.15;2.63;;;;;;;14.07;75.80;101205.31;4988083;28;20355;-79
2023/07/13 01:14:57;;;;;;;7.32;2.47;;;;;;;14.00;76.17;101218.00;4987844;28;20030;-78
2023/07/13 01:17:23;;;;;;;6.97;2.40;;;;;;;13.95;76.18;101212.38;4988867;28;20061;-78
2023/07/13 01:19:51;;;;;;;7.10;2.25;;;;;;;13.86;76.62;101208.25;5001528;28;20477;-79
2023/07/13 01:22:18;;;;;;;6.38;2.28;;;;;;;13.93;76.42;101206.38;4991101;28;20477;-78
2023/07/13 01:24:46;;;;;;;6.85;2.38;;;;;;;13.83;76.69;101205.94;4990708;28;20023;-79
2023/07/13 01:27:15;;;;;;;5.78;1.95;;;;;;;13.84;76.48;101207.63;4990759;28;20030;-79
2023/07/13 01:29:42;;;;;;;4.82;2.20;;;;;;;13.84;76.86;101207.63;4991035;28;20019;-78
2023/07/13 01:32:09;;;;;;;5.28;2.22;;;;;;;13.93;76.29;101195.53;4989418;28;20109;-79
2023/07/13 01:34:34;;;;;;;6.13;2.60;;;;;;;13.89;76.64;101199.72;4989089;28;20061;-79
2023/07/13 01:37:00;;;;;;;8.52;2.80;;;;;;;13.94;76.44;101199.91;4989099;28;20054;-78
2023/07/13 01:39:26;;;;;;;6.28;2.92;;;;;;;13.90;76.64;101201.38;4991543;28;20043;-78
2023/07/13 01:41:54;;;;;;;5.72;2.58;;;;;;;13.91;76.50;101197.63;4990004;28;20031;-79
2023/07/13 01:44:19;;;;;;;4.50;2.47;;;;;;;13.89;76.33;101205.13;5063691;22;20101;-79
2023/07/13 01:46:45;;;;;;;7.18;2.67;;;;;;;13.78;76.99;101199.28;5092279;28;20036;-79
2023/07/13 01:49:11;;;;;;;5.65;2.72;;;;;;;13.76;76.91;101200.56;5091552;28;20107;-78
2023/07/13 01:51:36;;;;;;;8.05;2.92;;;;;;;13.68;77.01;101201.59;5086895;28;20483;-78
2023/07/13 01:54:02;;;;;;;7.95;2.88;;;;;;;13.71;76.89;101195.78;5084161;28;20668;-78
2023/07/13 01:56:27;;;;;;;4.88;2.80;;;;;;;13.63;77.28;101193.28;5088763;28;20434;-78
2023/07/13 01:58:53;;;;;;;6.55;3.25;;;;;;;13.62;77.34;101197.00;5089729;28;20106;-78
2023/07/13 02:01:19;;;;;;;7.22;3.15;;;;;;;13.58;77.32;101196.59;5088351;28;20043;-78
2023/07/13 02:03:44;;;;;;;7.97;3.20;;;;;;;13.57;77.37;101203.06;5090678;28;20035;-79
2023/07/13 02:06:10;;;;;;;5.93;2.67;;;;;;;13.58;77.38;101204.72;5087509;28;20024;-79
2023/07/13 02:08:35;;;;;;;5.13;2.78;;;;;;;13.55;77.57;101204.31;5088869;28;20031;-78
2023/07/13 02:11:05;;;;;;;6.90;2.92;;;;;;;13.49;77.72;101195.97;5090336;28;20020;-78
2023/07/13 02:13:30;;;;;;;6.45;3.05;;;;;;;13.52;77.67;101199.31;5089045;28;20028;-78
2023/07/13 02:15:59;;;;;;;6.18;3.08;;;;;;;13.50;77.64;101196.84;5089691;28;20085;-79
2023/07/13 02:18:24;;;;;;;6.10;2.90;;;;;;;13.43;77.40;101204.91;5089981;28;20069;-78
2023/07/13 02:20:49;;;;;;;8.20;3.05;;;;;;;13.46;77.77;101207.22;5090650;28;20028;-81
2023/07/13 02:23:15;;;;;;;4.90;2.60;;;;;;;13.45;77.63;101205.53;5110020;28;20033;-82
2023/07/13 02:25:41;;;;;;;6.00;2.85;;;;;;;13.48;77.65;101207.84;5109141;28;20024;-77
2023/07/13 02:28:09;;;;;;;5.30;3.03;;;;;;;13.44;77.69;101206.59;5091537;28;20035;-84
2023/07/13 02:30:38;;;;;;;6.00;3.25;;;;;;;13.37;78.11;101216.56;5092595;28;20042;-84
2023/07/13 02:33:05;;;;;;;6.22;2.72;;;;;;;13.34;78.07;101214.25;5083568;28;20039;-83
2023/07/13 02:35:31;;;;;;;6.78;2.65;;;;;;;13.39;77.72;101211.78;5091728;28;20506;-84
2023/07/13 02:37:56;;;;;;;6.40;2.78;;;;;;;13.41;77.80;101208.88;5089287;28;20024;-83
2023/07/13 02:40:22;;;;;;;10.13;3.20;;;;;;;13.38;77.66;101210.09;5091492;28;20554;-82
2023/07/13 02:42:47;;;;;;;8.68;3.13;;;;;;;13.36;78.08;101209.47;5088118;28;20414;-82
2023/07/13 02:45:13;;;;;;;5.00;2.70;;;;;;;13.33;78.24;101212.59;5090300;28;20035;-82
2023/07/13 02:47:41;;;;;;;5.82;2.95;;;;;;;13.32;78.02;101200.09;5092836;28;20076;-83
2023/07/13 02:50:07;;;;;;;5.55;2.80;;;;;;;13.32;78.54;101203.66;5091788;28;20032;-83
2023/07/13 02:52:32;;;;;;;5.80;2.95;;;;;;;13.37;78.37;101197.63;5082144;28;20031;-82
2023/07/13 02:54:59;;;;;;;6.72;3.00;;;;;;;13.45;77.99;101205.53;5090313;28;20036;-82
2023/07/13 02:57:25;;;;;;;6.80;2.78;;;;;;;13.52;77.22;101212.84;5090537;28;20028;-83
2023/07/13 02:59:50;;;;;;;6.15;2.70;;;;;;;13.55;77.32;101202.44;5089411;28;20032;-82
2023/07/13 03:02:18;;;;;;;6.28;2.55;;;;;;;13.56;77.31;101205.97;5090713;28;20479;-82
2023/07/13 03:04:44;;;;;;;5.13;2.65;;;;;;;13.55;77.48;101204.31;5091624;28;20016;-82
2023/07/13 03:07:13;;;;;;;5.68;3.00;;;;;;;13.39;77.93;101221.75;5095712;28;20530;-83
2023/07/13 03:09:39;;;;;;;8.75;2.67;;;;;;;13.42;78.13;101218.66;5096477;28;20408;-82
2023/07/13 03:12:05;;;;;;;5.57;2.45;;;;;;;13.42;78.15;101222.19;5093025;28;20055;-82
2023/07/13 03:14:30;;;;;;;9.85;3.17;;;;;;;13.34;78.63;101220.47;5082249;28;20036;-82
2023/07/13 03:16:56;;;;;;;7.57;2.83;;;;;;;13.36;78.26;101231.09;5088393;28;20024;-82
2023/07/13 03:19:21;;;;;;;5.30;3.05;;;;;;;13.34;78.36;101225.88;5093591;28;20047;-82
2023/07/13 03:21:46;;;;;;;7.85;2.50;;;;;;;13.32;78.88;101228.00;5108067;28;20057;-82
2023/07/13 03:24:12;;;;;;;5.25;2.50;;;;;;;13.37;78.73;101235.47;5108617;28;20023;-82
2023/07/13 03:26:37;;;;;;;4.38;2.28;;;;;;;13.38;78.64;101239.84;5109950;28;20035;-82
2023/07/13 03:29:04;;;;;;;7.32;2.55;;;;;;;13.45;78.94;101242.59;5099613;28;20024;-82
2023/07/13 03:31:35;;;;;;;6.00;3.13;;;;;;;13.47;78.68;101244.03;5093438;28;20067;-83
2023/07/13 03:34:03;;;;;;;5.40;2.33;;;;;;;13.47;78.89;101249.44;5076527;28;20165;-82
2023/07/13 03:36:30;;;;;;;6.22;2.60;;;;;;;13.40;79.17;101245.91;5092395;28;20008;-82
2023/07/13 03:38:58;;;;;;;6.07;2.70;;;;;;;13.44;78.76;101244.44;5089985;28;20311;-82
2023/07/13 03:41:23;;;;;;;6.70;2.55;;;;;;;13.46;78.98;101244.25;5090634;28;20110;-82
2023/07/13 03:43:49;;;;;;;7.32;2.65;;;;;;;13.49;78.83;101244.66;5089817;28;20086;-83
2023/07/13 03:46:15;;;;;;;7.80;3.10;;;;;;;13.49;78.94;101252.78;5091479;28;20028;-82
2023/07/13 03:48:43;;;;;;;8.05;2.72;;;;;;;13.47;79.17;101252.16;5090225;28;20518;-83
2023/07/13 03:51:09;;;;;;;9.30;2.58;;;;;;;13.57;79.11;101250.94;5088007;28;20031;-82
2023/07/13 03:53:38;;;;;;;6.78;2.70;;;;;;;13.61;78.98;101246.75;5089882;28;20020;-84
2023/07/13 03:56:03;;;;;;;5.40;2.80;;;;;;;13.61;79.24;101258.41;5072299;28;20019;-82
2023/07/13 03:58:39;;;;;;;8.38;2.72;;;;;;;13.67;78.86;101256.75;5085989;28;20031;-82
2023/07/13 04:01:05;;;;;;;5.65;2.28;;;;;;;13.61;79.27;101257.56;5088967;28;20033;-84
2023/07/13 04:03:32;;;;;;;8.82;2.92;;;;;;;13.60;79.68;101259.44;5089376;28;20028;-84
2023/07/13 04:05:59;;;;;;;12.00;3.03;;;;;;;13.58;79.58;101266.13;5091297;28;20499;-82
2023/07/13 04:08:28;;;;;;;3.28;2.42;;;;;;;13.55;79.59;101259.22;5089086;28;20023;-83
2023/07/13 04:10:54;;;;;;;6.85;2.70;;;;;;;13.54;79.85;101259.44;5094901;28;20035;-83
2023/07/13 04:13:20;;;;;;;3.92;2.55;;;;;;;13.52;79.75;101259.63;5093588;28;20020;-83
2023/07/13 04:15:45;;;;;;;9.18;2.85;;;;;;;13.44;80.34;101267.97;5093166;28;20035;-83
2023/07/13 04:18:10;;;;;;;5.85;2.65;;;;;;;13.41;80.47;101269.22;5085003;28;20483;-83
2023/07/13 04:20:36;;;;;;;6.65;2.80;;;;;;;13.46;80.38;101266.72;5092006;28;20468;-84
2023/07/13 04:23:01;;;;;;;6.05;2.63;;;;;;;13.43;80.63;101266.31;5092210;28;20422;-83
2023/07/13 04:25:29;;;;;;;5.07;2.60;;;;;;;13.45;80.70;101270.44;5093462;28;20020;-83
2023/07/13 04:27:54;;;;;;;5.05;2.40;;;;;;;13.42;80.60;101262.75;5093547;28;20081;-82
2023/07/13 04:30:23;;;;;;;7.10;2.63;;;;;;;13.46;80.60;101266.72;5091968;28;20020;-81
2023/07/13 04:32:52;;;;;;;7.15;3.45;;;;;;;13.65;80.14;101269.66;5092540;28;20518;-81
2023/07/13 04:35:20;;;;;;;8.13;2.92;;;;;;;13.98;78.76;101268.00;5092277;28;20505;-82
2023/07/13 04:37:45;;;;;;;10.18;3.40;;;;;;;14.42;77.19;101268.34;5074569;28;20032;-82
2023/07/13 04:40:12;;;;;;;6.07;2.90;;;;;;;14.90;75.51;101278.81;5092503;28;20039;-82
2023/07/13 04:42:38;;;;;;;8.55;2.90;;;;;;;15.65;72.11;101281.94;5091923;28;20141;-82
2023/07/13 04:45:06;;;;;;;6.75;2.40;;;;;;;16.15;70.11;101286.56;5091204;28;20036;-82
2023/07/13 04:47:31;;;;;;;10.95;2.90;;;;;;;16.10;69.95;101279.06;5090096;28;20020;-82
2023/07/13 04:49:57;;;;;;;8.30;3.00;;;;;;;15.85;71.16;101276.34;5091963;28;20028;-82
2023/07/13 04:52:23;;;;;;;7.45;3.13;;;;;;;15.41;72.53;101282.50;5091593;28;20024;-80
2023/07/13 04:54:48;;;;;;;7.28;2.95;;;;;;;15.58;72.65;101282.78;5095003;28;20539;-80
2023/07/13 04:57:14;;;;;;;6.50;3.40;;;;;;;15.59;72.05;101287.19;5090091;28;20454;-80
2023/07/13 04:59:40;;;;;;;10.18;3.15;;;;;;;15.40;73.31;101290.84;5094297;28;20029;-80
2023/07/13 05:02:05;;;;;;;6.28;2.90;;;;;;;15.23;73.99;101275.09;5095188;28;20066;-80
2023/07/13 05:04:31;;;;;;;8.80;3.58;;;;;;;15.07;74.70;101286.44;5091562;28;20864;-80
2023/07/13 05:06:56;;;;;;;8.18;3.15;;;;;;;15.20;75.09;101299.94;5093383;28;20403;-80
2023/07/13 05:09:22;;;;;;;6.03;2.67;;;;;;;16.05;71.92;101303.38;5092178;28;20499;-80
2023/07/13 05:11:47;;;;;;;5.65;2.80;;;;;;;16.85;69.05;101303.56;5083451;28;20024;-80
2023/07/13 05:14:13;;;;;;;6.53;3.08;;;;;;;17.85;65.19;101304.91;5092570;28;20032;-80
2023/07/13 05:16:38;;;;;;;7.28;3.53;;;;;;;18.43;63.20;101316.09;5091577;28;20028;-80
2023/07/13 05:19:03;;;;;;;6.97;3.13;;;;;;;18.94;61.24;101308.16;5092313;28;20608;-80
2023/07/13 05:21:29;;;;;;;8.73;3.15;;;;;;;18.81;61.52;101313.88;5084919;28;20483;-80
2023/07/13 05:23:54;;;;;;;6.97;3.08;;;;;;;19.51;59.86;101311.13;5094675;28;20024;-80
2023/07/13 05:26:20;;;;;;;5.25;2.97;;;;;;;19.27;59.29;101324.06;5093208;28;20026;-80
2023/07/13 05:28:46;;;;;;;6.95;3.10;;;;;;;19.78;58.28;101318.69;5092988;28;20028;-81
2023/07/13 05:31:11;;;;;;;10.48;3.40;;;;;;;19.82;58.52;101323.41;5093862;28;20016;-81
2023/07/13 05:33:37;;;;;;;6.80;3.35;;;;;;;20.41;56.39;101316.69;5092222;28;20054;-81
2023/07/13 05:36:02;;;;;;;9.93;3.45;;;;;;;18.35;62.43;101321.06;5093034;28;20383;-81
2023/07/13 05:38:28;;;;;;;7.93;3.03;;;;;;;18.53;62.83;101320.94;5094883;28;20379;-83
2023/07/13 05:40:55;;;;;;;9.25;3.88;;;;;;;17.79;65.67;101314.00;5093001;28;20036;-80
2023/07/13 05:43:20;;;;;;;9.65;3.47;;;;;;;17.41;67.02;101332.38;5094142;28;20079;-79
2023/07/13 05:45:46;;;;;;;8.00;3.53;;;;;;;16.63;69.95;101323.03;5092659;28;20115;-80
2023/07/13 05:48:11;;;;;;;11.70;4.05;;;;;;;17.08;68.92;101322.75;5090767;28;20024;-79
2023/07/13 05:50:39;;;;;;;9.82;3.95;;;;;;;17.13;68.64;101322.06;5093548;28;20028;-79
2023/07/13 05:53:04;;;;;;;8.60;3.60;;;;;;;16.98;69.28;101327.91;5083466;28;20043;-79
2023/07/13 05:55:30;;;;;;;13.40;4.13;;;;;;;16.68;70.84;101328.63;5087833;28;20032;-81
2023/07/13 05:57:57;;;;;;;12.50;3.97;;;;;;;16.58;71.59;101336.50;5089382;28;20036;-80
2023/07/13 06:00:24;;;;;;;8.00;3.97;;;;;;;16.59;72.29;101335.44;5091629;28;20028;-79
2023/07/13 06:02:49;;;;;;;8.65;3.72;;;;;;;16.99;71.65;101339.63;5089344;28;20023;-78
2023/07/13 06:05:15;;;;;;;9.05;3.92;;;;;;;17.17;69.98;101346.91;5089563;28;20027;-79
2023/07/13 06:07:41;;;;;;;10.25;4.28;;;;;;;17.16;70.20;101347.97;5089978;28;20023;-78
2023/07/13 06:10:06;;;;;;;9.43;4.10;;;;;;;17.27;70.26;101358.09;5091191;28;20095;-78
2023/07/13 06:12:32;;;;;;;12.85;4.40;;;;;;;17.27;70.12;101358.09;5088921;28;20171;-78
2023/07/13 06:14:57;;;;;;;12.52;4.68;;;;;;;17.21;70.63;101362.53;5088234;28;20031;-78
2023/07/13 06:17:23;;;;;;;9.80;4.55;;;;;;;17.05;71.07;101366.75;5091188;28;20058;-78
2023/07/13 06:19:48;;;;;;;12.02;4.97;;;;;;;17.29;70.16;101364.16;5089734;28;20028;-78
2023/07/13 06:22:13;;;;;;;11.15;5.20;;;;;;;17.09;71.40;101378.84;5088774;28;20609;-78
2023/07/13 06:24:39;;;;;;;11.93;5.75;;;;;;;17.28;70.51;101370.66;5091085;28;20396;-78
2023/07/13 06:27:05;;;;;;;11.77;6.15;;;;;;;17.23;71.42;101365.88;5091285;28;20375;-78
2023/07/13 06:29:32;;;;;;;12.88;5.53;;;;;;;17.51;70.25;101382.69;5090888;28;20418;-79
2023/07/13 06:31:57;;;;;;;12.32;5.65;;;;;;;17.34;70.87;101383.31;5091494;28;20043;-79
2023/07/13 06:34:23;;;;;;;12.73;6.93;;;;;;;16.89;72.73;101389.06;5092450;28;20020;-78
2023/07/13 06:36:49;;;;;;;18.02;7.03;;;;;;;16.95;73.38;101382.75;5076908;28;20054;-77
2023/07/13 06:39:15;;;;;;;12.50;6.53;;;;;;;17.38;71.86;101384.53;5114133;28;20085;-79
2023/07/13 06:41:40;;;;;;;14.63;7.38;;;;;;;16.99;72.93;101392.13;5109074;28;20027;-77
2023/07/13 06:44:06;;;;;;;16.40;7.68;;;;;;;17.15;72.57;101393.41;5095826;28;20043;-78
2023/07/13 06:46:31;;;;;;;16.20;8.30;;;;;;;17.38;72.07;101387.25;5092417;28;20023;-78
2023/07/13 06:48:57;;;;;;;17.15;8.70;;;;;;;17.47;71.16;101401.38;5089317;28;20411;-78
2023/07/13 06:51:22;;;;;;;15.57;7.78;;;;;;;17.71;71.78;101394.13;5088329;28;20020;-78
2023/07/13 06:53:48;;;;;;;13.93;8.05;;;;;;;18.40;68.30;101401.06;5091241;28;20051;-78
2023/07/13 06:56:14;;;;;;;20.30;9.07;;;;;;;18.30;67.95;101403.53;5089493;28;20384;-78
2023/07/13 06:58:40;;;;;;;18.85;8.98;;;;;;;18.03;68.59;101404.78;5089102;28;20031;-79
2023/07/13 07:01:05;;;;;;;14.30;8.18;;;;;;;18.60;67.13;101408.06;5090046;28;20024;-77
2023/07/13 07:03:32;;;;;;;16.65;8.50;;;;;;;18.15;68.74;101401.25;5091427;28;20020;-78
2023/07/13 07:06:15;;;;;;;17.05;8.45;;;;;;;18.62;68.11;101409.47;5073773;28;20009;-82
2023/07/13 07:08:40;;;;;;;14.93;8.25;;;;;;;18.90;66.37;101405.16;5105466;28;20036;-81
2023/07/13 07:11:16;;;;;;;20.65;8.95;;;;;;;18.27;68.20;101404.84;5090019;28;20069;-81
2023/07/13 07:13:42;;;;;;;16.35;9.10;;;;;;;17.83;69.45;101410.50;5072514;28;20012;-79
2023/07/13 07:16:08;;;;;;;20.55;9.35;;;;;;;17.80;70.46;101410.16;5090999;28;20044;-78
2023/07/13 07:18:39;;;;;;;17.67;8.88;;;;;;;17.78;70.65;101417.72;5089886;28;20111;-83
2023/07/13 07:21:04;;;;;;;16.98;8.70;;;;;;;17.75;71.40;101418.19;5087531;28;20237;-81
2023/07/13 07:23:36;;;;;;;15.82;9.35;;;;;;;18.19;69.88;101421.50;5088889;28;20246;-78
2023/07/13 07:26:09;;;;;;;18.00;9.60;;;;;;;18.08;69.65;101420.44;5090867;28;20035;-79
2023/07/13 07:28:35;;;;;;;14.05;8.98;;;;;;;17.79;71.32;101420.19;5081226;28;20024;-77
2023/07/13 07:31:00;;;;;;;16.58;9.02;;;;;;;18.22;69.86;101418.31;5090878;28;20105;-76
2023/07/13 07:33:26;;;;;;;18.10;9.82;;;;;;;17.81;70.60;101425.44;5088796;28;20032;-77
2023/07/13 07:35:51;;;;;;;22.33;9.68;;;;;;;17.84;71.24;101425.78;5084064;28;20050;-77
2023/07/13 07:38:17;;;;;;;20.35;9.50;;;;;;;17.89;71.00;101419.63;5089623;28;20028;-77
2023/07/13 07:40:42;;;;;;;16.90;9.30;;;;;;;18.18;70.44;101423.41;5090402;28;20024;-76
2023/07/13 07:43:08;;;;;;;15.20;8.95;;;;;;;18.42;69.23;101422.63;5092063;28;20052;-76
2023/07/13 07:45:34;;;;;;;19.15;8.60;;;;;;;18.57;69.04;101419.44;5093985;28;20039;-76
2023/07/13 07:47:59;;;;;;;16.60;8.88;;;;;;;18.48;68.95;101427.94;5092718;28;20016;-76
2023/07/13 07:50:26;;;;;;;15.18;8.55;;;;;;;18.41;69.93;101420.94;5092246;28;20447;-76
2023/07/13 07:52:51;;;;;;;21.45;8.98;;;;;;;18.29;70.34;101421.78;5093266;28;20178;-76
2023/07/13 07:55:17;;;;;;;16.80;8.60;;;;;;;17.79;72.38;101424.81;5092748;28;20205;-76
2023/07/13 07:57:42;;;;;;;17.40;9.00;;;;;;;17.52;72.73;101426.03;5085260;28;20032;-76
2023/07/13 08:00:08;;;;;;;15.40;8.43;;;;;;;17.94;71.61;101422.50;5093214;28;20043;-76
2023/07/13 08:02:33;;;;;;;14.88;9.18;;;;;;;18.01;70.90;101427.88;5093401;28;20047;-76
2023/07/13 08:04:59;;;;;;;20.67;9.25;;;;;;;17.62;72.35;101419.19;5092047;28;20035;-76
2023/07/13 08:07:26;;;;;;;16.77;9.68;;;;;;;17.61;72.81;101418.38;5092704;28;20020;-76
2023/07/13 08:09:54;;;;;;;19.75;9.65;;;;;;;17.56;73.26;101429.91;5093702;28;20028;-76
2023/07/13 08:12:20;;;;;;;16.42;9.18;;;;;;;17.76;72.19;101431.53;5092427;28;20028;-76
2023/07/13 08:14:45;;;;;;;17.63;8.80;;;;;;;17.60;72.46;101427.59;5091838;28;20116;-76
2023/07/13 08:17:11;;;;;;;16.38;9.45;;;;;;;17.77;72.34;101435.13;5074562;28;20032;-76
2023/07/13 08:19:36;;;;;;;19.95;10.10;;;;;;;17.78;72.13;101426.69;5090970;28;20039;-76
2023/07/13 08:22:03;;;;;;;18.05;10.13;;;;;;;17.83;71.95;101426.00;5090131;28;20020;-76
2023/07/13 08:24:28;;;;;;;17.30;9.48;;;;;;;17.94;71.47;101429.81;5092763;28;20023;-76
2023/07/13 08:26:54;;;;;;;20.50;10.20;;;;;;;18.07;71.36;101429.69;5084834;28;20545;-76
2023/07/13 08:29:20;;;;;;;20.80;9.82;;;;;;;18.18;71.68;101425.28;5091979;28;20028;-76
2023/07/13 08:31:45;;;;;;;16.38;9.73;;;;;;;18.36;70.45;101429.00;5092297;28;20074;-74
2023/07/13 08:34:11;;;;;;;16.45;9.60;;;;;;;18.39;70.17;101426.66;5092298;28;20028;-75
2023/07/13 08:36:37;;;;;;;17.55;9.23;;;;;;;18.11;71.01;101435.50;5090303;28;20054;-75
2023/07/13 08:39:02;;;;;;;17.27;9.27;;;;;;;17.65;72.63;101427.72;5092798;28;20043;-75
2023/07/13 08:41:28;;;;;;;14.73;9.45;;;;;;;17.91;71.95;101433.84;5092176;28;20412;-74
2023/07/13 08:43:56;;;;;;;17.65;9.02;;;;;;;17.93;71.36;101437.19;5091125;28;20044;-74
2023/07/13 08:46:26;;;;;;;16.70;9.00;;;;;;;17.89;71.34;101430.53;5057598;28;20020;-74
2023/07/13 08:48:59;;;;;;;16.45;8.70;;;;;;;17.91;71.33;101433.03;5091288;28;20119;-74
2023/07/13 08:51:43;;;;;;;16.10;9.13;;;;;;;18.16;70.53;101433.72;5055237;28;20027;-75
2023/07/13 08:54:25;;;;;;;17.98;8.77;;;;;;;18.41;69.71;101429.13;5087857;28;20440;-75
2023/07/13 08:56:52;;;;;;;14.43;8.10;;;;;;;18.55;69.71;101425.09;5050198;28;20024;-74
2023/07/13 08:59:19;;;;;;;11.95;7.90;;;;;;;18.77;68.36;101416.34;5091342;28;20028;-74
2023/07/13 09:01:51;;;;;;;19.30;8.07;;;;;;;18.89;67.96;101417.16;5072771;28;20032;-75
2023/07/13 09:04:25;;;;;;;12.98;8.05;;;;;;;18.72;68.43;101421.66;5090017;28;20264;-73
2023/07/13 09:06:53;;;;;;;16.73;8.25;;;;;;;19.24;67.04;101429.13;5058495;28;20032;-74
2023/07/13 09:09:37;;;;;;;15.60;7.43;;;;;;;20.48;63.28;101430.53;5091787;28;20550;-74
2023/07/13 09:12:41;;;;;;;14.65;7.50;;;;;;;21.90;58.60;101422.78;5088654;28;20032;-74
2023/07/13 09:15:27;;;;;;;16.35;7.00;;;;;;;23.13;55.39;101422.84;5028453;28;20036;-74
2023/07/13 09:17:52;;;;;;;;;;;;;;;23.70;53.26;101414.81;5011108;28;20061;-76
2023/07/13 09:20:58;;;;;;;14.17;6.73;;;;;;;23.44;52.66;101422.16;5048590;28;19955;-75
2023/07/13 09:23:24;;;;;;;13.55;6.72;;;;;;;22.72;55.51;101417.16;5072414;28;20305;-75
2023/07/13 09:25:55;;;;;;;12.95;6.85;;;;;;;22.04;56.83;101418.53;5106499;28;20046;-73
2023/07/13 09:28:31;;;;;;;13.05;6.65;;;;;;;21.60;58.21;101424.97;5067846;28;20051;-75
2023/07/13 09:31:15;;;;;;;13.52;7.10;;;;;;;22.70;55.42;101419.34;5090845;28;20084;-75
2023/07/13 09:33:40;;;;;;;13.23;6.70;;;;;;;23.74;52.47;101415.91;5091198;28;20039;-75
2023/07/13 09:36:21;;;;;;;12.65;6.05;;;;;;;24.33;50.97;101430.28;5090696;28;20052;-75
2023/07/13 09:38:47;;;;;;;11.20;5.95;;;;;;;24.63;50.90;101420.31;5090814;28;20067;-75
2023/07/13 09:41:26;;;;;;;11.85;6.18;;;;;;;25.49;47.33;101413.97;5073680;28;20044;-74
2023/07/13 09:44:31;;;;;;;13.15;6.05;;;;;;;25.55;47.30;101418.38;5073338;28;20044;-74
2023/07/13 09:46:56;;;;;;;12.40;5.88;;;;;;;25.88;46.47;101420.63;5089576;28;20048;-74
2023/07/13 09:49:35;;;;;;;11.35;6.00;;;;;;;24.92;48.46;101427.16;5101850;28;20070;-75
2023/07/13 09:52:13;;;;;;;13.27;5.93;;;;;;;25.21;47.10;101424.59;5091784;28;20058;-74
2023/07/13 09:54:39;;;;;;;13.13;5.90;;;;;;;23.70;49.57;101420.28;5088720;28;20028;-75
2023/07/13 09:57:15;;;;;;;11.15;5.60;;;;;;;23.57;51.00;101423.56;5087564;28;20054;-74
2023/07/13 09:59:45;;;;;;;13.18;5.85;;;;;;;24.53;48.50;101409.34;5088600;28;20024;-74
2023/07/13 10:02:33;;;;;;;10.88;6.00;;;;;;;24.00;49.43;101423.41;5089216;28;20025;-74
2023/07/13 10:05:05;;;;;;;10.98;6.25;;;;;;;24.10;48.66;101423.38;5086883;28;20038;-74
2023/07/13 10:07:32;;;;;;;13.63;6.75;;;;;;;24.21;49.08;101414.06;5089089;28;20426;-74
2023/07/13 10:10:00;;;;;;;13.90;5.97;;;;;;;25.10;47.13;101418.28;5090312;28;20340;-74
2023/07/13 10:12:27;;;;;;;10.85;5.47;;;;;;;25.24;45.94;101412.16;5086153;28;20565;-74
2023/07/13 10:14:57;;;;;;;9.25;4.72;;;;;;;25.78;44.79;101415.19;5088761;28;20089;-74
2023/07/13 10:17:30;;;;;;;16.83;6.65;;;;;;;24.81;45.83;101412.59;5071502;28;20032;-74
2023/07/13 10:19:57;;;;;;;9.68;6.13;;;;;;;23.15;49.79;101415.16;5089873;28;20153;-74
2023/07/13 10:22:54;;;;;;;8.93;5.70;;;;;;;23.11;50.14;101419.56;5071231;28;20032;-73
2023/07/13 10:25:25;;;;;;;10.77;6.47;;;;;;;22.02;52.64;101412.47;5080759;28;20086;-73
2023/07/13 10:27:52;;;;;;;12.23;6.85;;;;;;;21.89;53.25;101415.66;5069694;28;20074;-73
2023/07/13 10:30:25;;;;;;;16.75;7.13;;;;;;;22.64;51.75;101417.63;5071609;28;20476;-75
2023/07/13 10:32:50;;;;;;;9.90;6.10;;;;;;;23.46;48.70;101414.47;5089927;28;20035;-74
2023/07/13 10:35:18;;;;;;;9.63;6.07;;;;;;;22.85;50.32;101424.09;5088489;28;20036;-74
2023/07/13 10:38:06;;;;;;;10.95;6.75;;;;;;;22.30;51.78;101420.66;5053985;28;20073;-74
2023/07/13 10:40:39;;;;;;;10.95;6.35;;;;;;;21.82;52.85;101421.34;5070432;28;20059;-76
2023/07/13 10:43:09;;;;;;;13.18;6.82;;;;;;;21.27;56.67;101437.69;5069991;28;20052;-76
2023/07/13 10:45:35;;;;;;;12.00;6.68;;;;;;;20.44;59.68;101424.75;5063807;28;20154;-76
2023/07/13 10:48:00;;;;;;;13.57;7.65;;;;;;;19.33;64.25;101452.22;5070099;28;20139;-77
2023/07/13 10:50:27;;;;;;;17.02;9.95;;;;;;;18.75;68.95;101452.03;5051704;28;20036;-78
2023/07/13 10:52:57;;;;;;;15.10;9.80;;;;;;;18.84;69.46;101460.69;5071981;28;20030;-78
2023/07/13 10:55:59;;;;;;;15.30;9.90;;;;;;;19.18;70.95;101455.47;5072795;28;20028;-78
2023/07/13 10:58:43;;;;;;;14.93;9.35;;;;;;;19.97;69.18;101459.50;5083881;28;20533;-78
2023/07/13 11:01:13;;;;;;;12.68;8.43;;;;;;;21.85;65.17;101458.38;5083192;28;20035;-77
2023/07/13 11:03:59;;;;;;;10.18;7.95;;;;;;;23.83;60.08;101459.38;5087752;28;20495;-77
2023/07/13 11:06:24;;;;;;;10.57;7.25;;;;;;;23.79;55.69;101461.81;5083341;28;20377;-77
2023/07/13 11:08:54;;;;;;;12.88;6.93;;;;;;;24.89;52.81;101460.78;5089820;28;20070;-77
2023/07/13 11:11:32;;;;;;;6.20;5.07;;;;;;;25.98;47.99;101450.06;5088371;28;20026;-77
2023/07/13 11:14:04;;;;;;;8.10;4.97;;;;;;;26.00;45.42;101450.59;5086180;28;20448;-77
2023/07/13 11:16:35;;;;;;;7.05;5.18;;;;;;;25.53;49.43;101463.84;5083504;28;20056;-76
2023/07/13 11:19:04;;;;;;;11.85;5.93;;;;;;;25.73;45.24;101454.66;5068090;28;20032;-76
2023/07/13 11:21:30;;;;;;;8.35;6.45;;;;;;;24.58;49.13;101456.13;5088782;28;20162;-77
2023/07/13 11:24:04;;;;;;;10.60;6.28;;;;;;;24.00;50.07;101465.50;5089569;28;20031;-77
2023/07/13 11:26:41;;;;;;;9.35;6.72;;;;;;;24.61;50.62;101465.75;5088211;28;20048;-77